Atkinson, NC

6:14 PM EDT on August 30, 2014 (GMT -0400)
KD4JRX HORSE BRANCH RD | Change Station
CLOSE
Current Station
Personal Weather Station
Location: WATHA, NC
Elevation: 58 ft
Nearby Weather Stations

Elev 58 ft 34.61 °N, 77.99 °W | Updated 4 seconds ago

Clear
Clear
86.7 °F
Feels Like 97 °F
N
1.6
Wind Variable Wind from SE
Gusts 6.9 mph

Today
High -- | Low -- °F
--% Chance of Precip.
Yesterday
High -- | Low -- °F
Precip. -- in
6:44 AM 7:41 PM
Waxing Crescent, 25% visible
Pressure 30.13 in
Visibility 10.0 miles
Clouds Scattered Clouds 12000 ft
Heat Index 97 °F
Dew Point 76 °F
Humidity 70%
Rainfall 0.00 in
Snow Depth Not available.
UV 1 out of 12
Pollen 8.00 out of 12
Air Quality Not available.
Flu Activity Not available.
METAR KEYF 302155Z AUTO 12003KT 10SM SCT120 30/22 A3013 RMK AO2 T02950220

More Conditions Fewer Conditions

Pressure 30.13 in
Visibility 10.0 miles
Clouds Scattered Clouds 12000 ft
Heat Index 97 °F
Dew Point 76 °F
Humidity 70%
Rainfall 0.00 in
Snow Depth Not available.
UV 1 out of 12
Pollen 8.00 out of 12
Air Quality Not available.
Flu Activity Not available.
METAR KEYF 302155Z AUTO 12003KT 10SM SCT120 30/22 A3013 RMK AO2 T02950220

More Conditions Fewer Conditions

10-Day Weather Forecast

Almanac

Astronomy

Aug. 30, 2014 Rise Set
Actual Time 6:44 AM EDT 7:41 PM EDT
Civil Twilight 6:18 AM EDT 8:07 PM EDT
Nautical Twilight 5:48 AM EDT 8:37 PM EDT
Astronomical Twilight 5:16 AM EDT 9:09 PM EDT
Moon 11:16 AM EDT 10:28 PM EDT
Length of Visible Light 13h 48m
Length of Day
12h 57m
Tomorrow will be 2m 3s shorter.
Waxing Crescent, 25% of the Moon is Illuminated
Today
Waxing Crescent
Sep 2
First Quarter
Sep 8
Full
Sep 15
Last Quarter
Sep 24
New

Today's Extremes

State Highs State Lows

Community

WunderPhotos

Upload Photos

1,748,657 photos uploaded!

WunderBlogs® & News

Nearby

Snow Depth

Station Depth Elevation
No new snow has been reported.

Earthquake Activity

City Distance Mag. Time & Date
No recent earthquake activity has been reported nearby.
Minimum magnitude displayed is 2.5.

Coastal Water Temperatures

Place Temperature
No Stations Reporting

Nearby Weather Stations